createdAt,value
2022-10-12T00:02:01.741Z,94998.34
2022-10-12T00:04:29.670Z,95006.19
2022-10-12T00:06:57.633Z,94989.44
2022-10-12T00:09:25.565Z,95006.69
2022-10-12T00:11:53.455Z,95001.47
2022-10-12T00:14:21.461Z,95002.41
2022-10-12T00:16:49.408Z,94997.72
2022-10-12T00:19:18.774Z,94997.88
2022-10-12T00:21:46.993Z,95001.16
2022-10-12T00:24:14.944Z,94981.94
2022-10-12T00:26:42.868Z,94995.44
2022-10-12T00:29:10.883Z,94980.31
2022-10-12T00:31:39.011Z,94994.31
2022-10-12T00:34:07.273Z,94990.41
2022-10-12T00:36:37.325Z,94997.41
2022-10-12T00:39:08.086Z,94991.84
2022-10-12T00:41:39.064Z,94978.53
2022-10-12T00:44:38.545Z,94990.59
2022-10-12T00:47:13.682Z,94992.03
2022-10-12T00:49:41.871Z,94986.56
2022-10-12T00:52:14.330Z,94986.56
2022-10-12T00:54:46.132Z,94983.34
2022-10-12T00:57:16.003Z,94978.13
2022-10-12T00:59:49.904Z,94978.28
2022-10-12T01:02:19.041Z,94984.13
2022-10-12T01:04:47.202Z,94978.28
2022-10-12T01:07:17.053Z,94973.75
2022-10-12T01:09:44.968Z,94977.66
2022-10-12T01:12:13.443Z,94976.13
2022-10-12T01:14:41.374Z,94991.03
2022-10-12T01:17:20.939Z,94988.63
2022-10-12T01:20:10.043Z,94990.41
2022-10-12T01:22:46.635Z,94987.53
2022-10-12T01:25:31.742Z,94974.28
2022-10-12T01:28:08.914Z,94990.53
2022-10-12T01:30:44.745Z,94986.63
2022-10-12T01:33:24.662Z,94984.56
2022-10-12T01:35:59.613Z,94984.22
2022-10-12T01:38:39.561Z,94969.97
2022-10-12T01:41:14.368Z,94977.16
2022-10-12T01:43:45.283Z,94982.59
2022-10-12T01:46:43.691Z,94983.03
2022-10-12T01:49:12.982Z,94984.94
2022-10-12T01:52:03.407Z,94979.81
2022-10-12T01:54:45.051Z,94982.78
2022-10-12T01:57:21.360Z,94983.34
2022-10-12T01:59:59.432Z,94980.72
2022-10-12T02:02:35.217Z,94984.78
2022-10-12T02:05:11.591Z,94978.81
2022-10-12T02:07:43.689Z,94987.53
2022-10-12T02:10:15.981Z,94987.81
2022-10-12T02:12:46.496Z,94985.94
2022-10-12T02:15:16.076Z,94986.38
2022-10-12T02:17:49.105Z,94988.41
2022-10-12T02:20:19.640Z,94992.59
2022-10-12T02:22:51.547Z,95002.22
2022-10-12T02:25:23.873Z,94997.28
2022-10-12T02:27:57.034Z,95006.72
2022-10-12T02:30:25.273Z,95001.03
2022-10-12T02:33:00.446Z,95009.72
2022-10-12T02:35:36.403Z,95013.50
2022-10-12T02:38:11.711Z,94999.34
2022-10-12T02:40:44.517Z,95007.88
2022-10-12T02:43:17.757Z,95001.84
2022-10-12T02:45:49.489Z,95003.63
2022-10-12T02:48:21.701Z,94993.47
2022-10-12T02:50:52.743Z,94996.06
2022-10-12T02:53:21.847Z,95000.31
2022-10-12T02:55:50.942Z,94999.84
2022-10-12T02:58:19.264Z,95004.19
2022-10-12T03:00:47.467Z,95008.16
2022-10-12T03:03:15.381Z,95007.59
2022-10-12T03:05:45.019Z,94990.94
2022-10-12T03:08:13.022Z,95003.81
2022-10-12T03:10:40.966Z,95001.56
2022-10-12T03:13:09.051Z,95003.00
2022-10-12T03:15:36.989Z,95005.06
2022-10-12T03:18:05.141Z,94995.72
2022-10-12T03:20:33.114Z,94995.09
2022-10-12T03:23:02.586Z,94996.06
2022-10-12T03:25:30.507Z,94991.13
2022-10-12T03:27:58.413Z,94991.19
2022-10-12T03:30:26.385Z,94995.63
2022-10-12T03:32:54.485Z,94997.50
2022-10-12T03:35:22.383Z,94999.59
2022-10-12T03:37:50.416Z,94997.84
2022-10-12T03:40:19.695Z,94998.69
2022-10-12T03:42:48.008Z,94996.41
2022-10-12T03:45:19.124Z,95001.19
2022-10-12T03:47:48.081Z,94997.19
2022-10-12T03:50:16.113Z,94994.34
2022-10-12T03:52:44.027Z,95000.66
2022-10-12T03:55:11.948Z,94998.63
2022-10-12T03:57:48.363Z,94991.44
2022-10-12T04:00:16.798Z,95002.28
2022-10-12T04:02:44.908Z,94993.81
2022-10-12T04:05:12.870Z,94989.09
2022-10-12T04:07:41.234Z,94993.38
2022-10-12T04:10:10.173Z,95002.38
2022-10-12T04:12:38.147Z,94994.19
2022-10-12T04:15:08.824Z,95000.75
2022-10-12T04:17:37.385Z,95005.63
2022-10-12T04:20:07.078Z,95004.97
2022-10-12T04:22:35.205Z,94997.25
2022-10-12T04:25:03.135Z,95006.69
2022-10-12T04:27:31.517Z,95012.25
2022-10-12T04:29:59.481Z,94999.59
2022-10-12T04:32:28.789Z,95004.88
2022-10-12T04:34:56.794Z,95012.44
2022-10-12T04:37:24.845Z,95006.75
2022-10-12T04:39:52.785Z,95004.88
2022-10-12T04:42:20.741Z,95004.69
2022-10-12T04:44:48.669Z,95004.25
2022-10-12T04:47:16.616Z,95005.41
2022-10-12T04:49:46.023Z,95023.59
2022-10-12T04:52:13.926Z,95029.63
2022-10-12T04:54:41.830Z,95008.72
2022-10-12T04:57:10.045Z,95024.75
2022-10-12T04:59:37.985Z,95021.97
2022-10-12T05:02:05.890Z,95024.06
2022-10-12T05:07:04.321Z,95029.09
2022-10-12T05:09:32.408Z,95032.06
2022-10-12T05:12:00.459Z,95025.13
2022-10-12T05:14:32.260Z,95018.28
2022-10-12T05:17:03.894Z,95035.47
2022-10-12T05:19:31.837Z,95028.00
2022-10-12T05:21:59.793Z,95034.69
2022-10-12T05:24:29.357Z,95039.44
2022-10-12T05:26:57.528Z,95043.13
2022-10-12T05:29:25.451Z,95047.44
2022-10-12T05:31:53.477Z,95048.91
2022-10-12T05:34:21.696Z,95044.00
2022-10-12T05:36:50.513Z,95047.88
2022-10-12T05:39:18.445Z,95051.41
2022-10-12T05:41:47.813Z,95052.94
2022-10-12T05:44:15.829Z,95053.69
2022-10-12T05:46:44.109Z,95054.19
2022-10-12T05:49:12.312Z,95048.66
2022-10-12T05:51:40.625Z,95060.31
2022-10-12T05:54:08.704Z,95062.28
2022-10-12T05:56:36.692Z,95072.38
2022-10-12T05:59:06.131Z,95066.44
2022-10-12T06:01:34.282Z,95076.97
2022-10-12T06:04:02.222Z,95079.31
2022-10-12T06:06:30.141Z,95080.63
2022-10-12T06:08:58.185Z,95085.03
2022-10-12T06:11:26.169Z,95086.19
2022-10-12T06:13:54.983Z,95084.03
2022-10-12T06:16:24.418Z,95093.81
2022-10-12T06:18:52.352Z,95084.81
2022-10-12T06:21:33.145Z,95094.00
2022-10-12T06:24:01.801Z,95093.56
2022-10-12T06:26:29.802Z,95083.09
2022-10-12T06:28:57.828Z,95100.31
2022-10-12T06:31:27.444Z,95091.84
2022-10-12T06:33:55.423Z,95105.47
2022-10-12T06:36:23.950Z,95099.94
2022-10-12T06:38:51.915Z,95106.78
2022-10-12T06:41:19.883Z,95098.50
2022-10-12T06:43:47.999Z,95108.69
2022-10-12T06:46:16.087Z,95110.97
2022-10-12T06:48:45.420Z,95117.00
2022-10-12T06:51:13.424Z,95108.16
2022-10-12T06:53:41.732Z,95119.88
2022-10-12T06:56:10.804Z,95124.75
2022-10-12T06:58:39.380Z,95119.69
2022-10-12T07:01:10.428Z,95126.19
2022-10-12T07:03:38.584Z,95125.00
2022-10-12T07:06:10.004Z,95129.16
2022-10-12T07:08:38.159Z,95129.50
2022-10-12T07:11:07.738Z,95128.00
2022-10-12T07:13:36.317Z,95127.22
2022-10-12T07:16:05.339Z,95122.47
2022-10-12T07:18:33.527Z,95131.47
2022-10-12T07:21:02.918Z,95124.81
2022-10-12T07:23:33.441Z,95135.59
2022-10-12T07:26:04.458Z,95130.22
2022-10-12T07:28:32.910Z,95129.03
2022-10-12T07:31:05.373Z,95134.13
2022-10-12T07:33:41.277Z,95130.72
2022-10-12T07:36:15.001Z,95138.94
2022-10-12T07:38:51.745Z,95126.63
2022-10-12T07:41:23.291Z,95130.53
2022-10-12T07:43:56.595Z,95124.66
2022-10-12T07:46:26.192Z,95152.47
2022-10-12T07:48:54.718Z,95142.00
2022-10-12T07:51:22.732Z,95158.81
2022-10-12T07:53:55.745Z,95153.03
2022-10-12T07:56:24.352Z,95149.59
2022-10-12T07:58:56.232Z,95134.50
2022-10-12T08:01:31.134Z,95139.25
2022-10-12T08:04:03.391Z,95131.28
2022-10-12T08:06:35.533Z,95149.66
2022-10-12T08:09:09.572Z,95151.97
2022-10-12T08:11:40.770Z,95150.03
2022-10-12T08:14:15.910Z,95143.03
2022-10-12T08:16:50.011Z,95154.66
2022-10-12T08:19:22.791Z,95150.16
2022-10-12T08:21:54.925Z,95156.03
2022-10-12T08:24:24.583Z,95151.97
2022-10-12T08:26:52.510Z,95156.63
2022-10-12T08:29:20.536Z,95148.09
2022-10-12T08:31:49.489Z,95152.72
2022-10-12T08:34:17.636Z,95158.06
2022-10-12T08:36:45.593Z,95159.91
2022-10-12T08:39:13.729Z,95151.66
2022-10-12T08:41:52.366Z,95162.44
2022-10-12T08:44:32.148Z,95165.25
2022-10-12T08:47:03.840Z,95160.03
2022-10-12T08:49:34.585Z,95157.88
2022-10-12T08:52:08.067Z,95156.44
2022-10-12T08:54:42.718Z,95162.50
2022-10-12T08:57:17.113Z,95161.56
2022-10-12T08:59:45.338Z,95166.47
2022-10-12T09:02:36.260Z,95156.84
2022-10-12T09:05:10.209Z,95165.53
2022-10-12T09:07:41.759Z,95160.31
2022-10-12T09:10:28.426Z,95160.97
2022-10-12T09:13:07.333Z,95160.75
2022-10-12T09:15:40.535Z,95160.72
2022-10-12T09:18:18.143Z,95164.41
2022-10-12T09:20:49.283Z,95174.72
2022-10-12T09:23:26.168Z,95169.53
2022-10-12T09:25:58.427Z,95161.41
2022-10-12T09:28:36.186Z,95159.22
2022-10-12T09:31:23.694Z,95169.31
2022-10-12T09:33:55.011Z,95166.72
2022-10-12T09:36:26.638Z,95163.75
2022-10-12T09:38:54.989Z,95164.09
2022-10-12T09:41:28.541Z,95174.47
2022-10-12T09:43:59.980Z,95168.31
2022-10-12T09:46:36.544Z,95169.34
2022-10-12T09:49:04.664Z,95167.47
2022-10-12T09:51:32.976Z,95169.03
2022-10-12T09:54:04.381Z,95170.13
2022-10-12T09:56:40.891Z,95168.56
2022-10-12T09:59:27.592Z,95171.75
2022-10-12T10:02:00.239Z,95173.81
2022-10-12T10:04:30.363Z,95173.22
2022-10-12T10:07:14.045Z,95173.91
2022-10-12T10:09:42.150Z,95157.75
2022-10-12T10:12:22.634Z,95153.75
2022-10-12T10:14:53.427Z,95158.59
2022-10-12T10:17:26.645Z,95164.72
2022-10-12T10:19:56.137Z,95162.53
2022-10-12T10:22:25.121Z,95161.91
2022-10-12T10:24:59.144Z,95154.44
2022-10-12T10:27:33.217Z,95153.50
2022-10-12T10:30:33.769Z,95160.25
2022-10-12T10:33:17.765Z,95154.22
2022-10-12T10:35:57.029Z,95150.63
2022-10-12T10:38:25.474Z,95148.66
2022-10-12T10:40:55.761Z,95161.03
2022-10-12T10:43:28.106Z,95151.91
2022-10-12T10:46:02.062Z,95158.03
2022-10-12T10:48:36.109Z,95155.56
2022-10-12T10:51:06.276Z,95148.53
2022-10-12T10:53:45.146Z,95138.44
2022-10-12T10:56:16.213Z,95148.38
2022-10-12T10:58:47.563Z,95136.63
2022-10-12T11:01:22.915Z,95157.69
2022-10-12T11:03:56.787Z,95164.53
2022-10-12T11:06:37.234Z,95159.28
2022-10-12T11:09:11.726Z,95154.44
2022-10-12T11:11:43.288Z,95154.06
2022-10-12T11:14:17.247Z,95149.97
2022-10-12T11:16:51.901Z,95144.53
2022-10-12T11:19:27.730Z,95144.31
2022-10-12T11:21:59.287Z,95149.38
2022-10-12T11:24:33.653Z,95149.78
2022-10-12T11:27:07.011Z,95143.91
2022-10-12T11:29:36.641Z,95145.72
2022-10-12T11:32:09.430Z,95150.56
2022-10-12T11:34:46.998Z,95148.88
2022-10-12T11:37:20.980Z,95146.22
2022-10-12T11:39:53.777Z,95144.19
2022-10-12T11:42:30.549Z,95145.03
2022-10-12T11:45:00.764Z,95145.69
2022-10-12T11:47:38.056Z,95145.22
2022-10-12T11:50:15.309Z,95133.31
2022-10-12T11:52:47.293Z,95148.47
2022-10-12T11:55:31.316Z,95138.94
2022-10-12T11:58:10.261Z,95141.78
2022-10-12T12:00:52.266Z,95147.47
2022-10-12T12:03:30.064Z,95142.19
2022-10-12T12:06:21.784Z,95142.94
2022-10-12T12:08:59.764Z,95143.59
2022-10-12T12:11:30.660Z,95152.31
2022-10-12T12:14:37.085Z,95161.16
2022-10-12T12:17:30.936Z,95160.16
2022-10-12T12:20:03.249Z,95155.69
2022-10-12T12:22:50.197Z,95155.53
2022-10-12T12:25:30.234Z,95146.22
2022-10-12T12:28:19.850Z,95153.66
2022-10-12T12:30:58.934Z,95158.16
2022-10-12T12:33:42.274Z,95154.69
2022-10-12T12:36:14.453Z,95159.97
2022-10-12T12:38:48.482Z,95155.16
2022-10-12T12:41:19.185Z,95161.03
2022-10-12T12:43:59.000Z,95163.50
2022-10-12T12:46:46.891Z,95158.63
2022-10-12T12:49:29.116Z,95160.03
2022-10-12T12:51:59.850Z,95161.69
2022-10-12T12:54:28.738Z,95164.09
2022-10-12T12:57:14.507Z,95163.66
2022-10-12T13:00:08.733Z,95168.97
2022-10-12T13:03:19.044Z,95174.16
2022-10-12T13:06:11.894Z,95173.75
2022-10-12T13:08:53.727Z,95176.59
2022-10-12T13:11:49.646Z,95173.72
2022-10-12T13:14:38.136Z,95161.94
2022-10-12T13:17:32.301Z,95179.09
2022-10-12T13:20:03.220Z,95182.88
2022-10-12T13:22:35.195Z,95173.41
2022-10-12T13:25:09.063Z,95176.28
2022-10-12T13:27:44.292Z,95170.16
2022-10-12T13:30:21.038Z,95171.16
2022-10-12T13:32:54.873Z,95164.84
2022-10-12T13:35:33.521Z,95177.41
2022-10-12T13:38:03.403Z,95182.66
2022-10-12T13:40:38.479Z,95186.38
2022-10-12T13:43:35.865Z,95182.66
2022-10-12T13:46:07.962Z,95187.16
2022-10-12T13:49:00.929Z,95181.69
2022-10-12T13:51:26.464Z,95178.06
2022-10-12T13:53:54.476Z,95172.19
2022-10-12T13:56:26.405Z,95171.22
2022-10-12T13:58:59.138Z,95174.50
2022-10-12T14:01:27.904Z,95172.31
2022-10-12T14:04:03.713Z,95177.78
2022-10-12T14:06:33.866Z,95175.00
2022-10-12T14:09:09.712Z,95181.47
2022-10-12T14:11:40.102Z,95168.16
2022-10-12T14:14:14.209Z,95168.41
2022-10-12T14:16:42.273Z,95165.75
2022-10-12T14:19:21.508Z,95160.91
2022-10-12T14:21:50.581Z,95169.00
2022-10-12T14:24:20.305Z,95167.56
2022-10-12T14:26:56.788Z,95169.19
2022-10-12T14:29:33.327Z,95170.41
2022-10-12T14:32:03.694Z,95158.28
2022-10-12T14:34:46.588Z,95170.41
2022-10-12T14:37:31.644Z,95162.94
2022-10-12T14:40:04.100Z,95164.34
2022-10-12T14:42:35.400Z,95169.41
2022-10-12T14:45:07.290Z,95169.41
2022-10-12T14:47:39.276Z,95169.19
2022-10-12T14:50:09.890Z,95164.53
2022-10-12T14:52:41.507Z,95160.28
2022-10-12T14:55:23.173Z,95151.19
2022-10-12T14:57:56.113Z,95165.97
2022-10-12T15:00:29.722Z,95165.91
2022-10-12T15:03:01.417Z,95159.25
2022-10-12T15:05:37.046Z,95167.53
2022-10-12T15:08:09.499Z,95159.25
2022-10-12T15:10:44.216Z,95162.44
2022-10-12T15:13:16.648Z,95154.97
2022-10-12T15:15:49.917Z,95153.09
2022-10-12T15:18:19.060Z,95161.56
2022-10-12T15:20:50.553Z,95161.56
2022-10-12T15:23:19.143Z,95153.03
2022-10-12T15:25:53.234Z,95166.94
2022-10-12T15:28:24.683Z,95161.88
2022-10-12T15:31:16.412Z,95152.75
2022-10-12T15:33:45.642Z,95157.81
2022-10-12T15:36:13.677Z,95174.38
2022-10-12T15:38:43.788Z,95170.69
2022-10-12T15:41:19.907Z,95161.59
2022-10-12T15:43:49.451Z,95160.16
2022-10-12T15:46:17.500Z,95160.56
2022-10-12T15:48:47.487Z,95154.47
2022-10-12T15:51:22.841Z,95168.25
2022-10-12T15:53:51.078Z,95162.50
2022-10-12T15:56:28.614Z,95164.28
2022-10-12T15:58:58.338Z,95165.03
2022-10-12T16:01:26.360Z,95149.63
2022-10-12T16:03:54.651Z,95160.75
2022-10-12T16:06:23.311Z,95157.84
2022-10-12T16:08:51.687Z,95150.97
2022-10-12T16:11:20.555Z,95143.66
2022-10-12T16:13:55.507Z,95157.16
2022-10-12T16:16:26.306Z,95160.16
2022-10-12T16:18:54.440Z,95148.44
2022-10-12T16:21:22.640Z,95143.72
2022-10-12T16:23:50.794Z,95144.91
2022-10-12T16:26:21.280Z,95152.16
2022-10-12T16:28:49.526Z,95151.88
2022-10-12T16:31:18.719Z,95149.41
2022-10-12T16:33:50.431Z,95149.91
2022-10-12T16:36:19.391Z,95145.22
2022-10-12T16:38:50.508Z,95138.75
2022-10-12T16:41:19.545Z,95144.00
2022-10-12T16:43:47.837Z,95141.56
2022-10-12T16:46:16.088Z,95144.56
2022-10-12T16:48:45.497Z,95133.41
2022-10-12T16:51:15.710Z,95135.41
2022-10-12T16:53:48.615Z,95133.53
2022-10-12T16:56:17.059Z,95126.41
2022-10-12T16:58:45.332Z,95131.84
2022-10-12T17:01:17.078Z,95131.03
2022-10-12T17:03:45.528Z,95119.88
2022-10-12T17:06:14.922Z,95135.63
2022-10-12T17:08:45.638Z,95128.47
2022-10-12T17:11:17.135Z,95127.03
2022-10-12T17:13:48.938Z,95125.31
2022-10-12T17:16:41.556Z,95131.25
2022-10-12T17:19:12.899Z,95116.69
2022-10-12T17:21:42.919Z,95119.47
2022-10-12T17:24:14.197Z,95104.16
2022-10-12T17:26:43.626Z,95107.59
2022-10-12T17:29:14.665Z,95109.13
2022-10-12T17:31:46.954Z,95107.88
2022-10-12T17:34:22.106Z,95106.44
2022-10-12T17:36:56.063Z,95125.13
2022-10-12T17:39:25.780Z,95106.53
2022-10-12T17:41:54.356Z,95116.72
2022-10-12T17:44:23.288Z,95113.03
2022-10-12T17:46:51.920Z,95103.66
2022-10-12T17:49:24.988Z,95108.78
2022-10-12T17:51:55.028Z,95104.44
2022-10-12T17:54:26.285Z,95111.03
2022-10-12T17:56:55.527Z,95102.47
2022-10-12T17:59:25.196Z,95108.84
2022-10-12T18:01:53.870Z,95114.72
2022-10-12T18:04:22.310Z,95124.47
2022-10-12T18:06:50.505Z,95129.22
2022-10-12T18:09:21.213Z,95131.19
2022-10-12T18:11:49.666Z,95128.41
2022-10-12T18:14:17.934Z,95123.72
2022-10-12T18:16:45.900Z,95129.19
2022-10-12T18:19:17.496Z,95120.28
2022-10-12T18:21:46.665Z,95131.63
2022-10-12T18:24:17.727Z,95126.22
2022-10-12T18:26:50.201Z,95113.94
2022-10-12T18:29:18.327Z,95120.78
2022-10-12T18:31:49.683Z,95135.63
2022-10-12T18:34:18.944Z,95134.72
2022-10-12T18:36:47.110Z,95128.22
2022-10-12T18:39:17.468Z,95122.59
2022-10-12T18:41:47.468Z,95141.31
2022-10-12T18:44:17.812Z,95147.53
2022-10-12T18:46:48.711Z,95142.88
2022-10-12T18:49:19.479Z,95151.19
2022-10-12T18:51:49.858Z,95143.44
2022-10-12T18:54:18.293Z,95150.13
2022-10-12T18:56:49.693Z,95154.56
2022-10-12T18:59:22.514Z,95149.50
2022-10-12T19:01:50.886Z,95154.72
2022-10-12T19:04:19.178Z,95151.66
2022-10-12T19:06:47.191Z,95164.41
2022-10-12T19:09:15.600Z,95155.34
2022-10-12T19:11:43.918Z,95166.25
2022-10-12T19:14:15.048Z,95172.63
2022-10-12T19:16:45.933Z,95174.47
2022-10-12T19:19:20.486Z,95181.00
2022-10-12T19:21:50.061Z,95177.75
2022-10-12T19:24:19.239Z,95184.22
2022-10-12T19:26:47.824Z,95188.38
2022-10-12T19:29:20.743Z,95199.28
2022-10-12T19:31:52.139Z,95193.44
2022-10-12T19:34:23.882Z,95197.03
2022-10-12T19:36:54.874Z,95199.44
2022-10-12T19:39:24.768Z,95199.31
2022-10-12T19:41:53.599Z,95203.56
2022-10-12T19:44:22.121Z,95203.41
2022-10-12T19:46:53.648Z,95217.41
2022-10-12T19:49:21.749Z,95218.88
2022-10-12T19:51:50.975Z,95219.88
2022-10-12T19:54:19.738Z,95218.25
2022-10-12T19:56:47.854Z,95200.84
2022-10-12T19:59:16.995Z,95214.84
2022-10-12T20:01:48.140Z,95220.53
2022-10-12T20:04:20.046Z,95210.16
2022-10-12T20:06:52.373Z,95219.25
2022-10-12T20:09:25.643Z,95217.97
2022-10-12T20:11:54.266Z,95216.03
2022-10-12T20:14:22.548Z,95215.69
2022-10-12T20:16:53.106Z,95216.00
2022-10-12T20:19:22.949Z,95224.50
2022-10-12T20:21:51.230Z,95219.63
2022-10-12T20:24:19.485Z,95220.28
2022-10-12T20:26:47.654Z,95220.59
2022-10-12T20:29:15.953Z,95225.31
2022-10-12T20:31:44.362Z,95216.84
2022-10-12T20:34:12.806Z,95228.88
2022-10-12T20:36:42.312Z,95226.78
2022-10-12T20:39:10.413Z,95244.03
2022-10-12T20:41:40.397Z,95240.47
2022-10-12T20:44:10.618Z,95231.31
2022-10-12T20:46:38.785Z,95226.59
2022-10-12T20:49:06.895Z,95222.53
2022-10-12T20:51:36.941Z,95230.34
2022-10-12T20:54:09.022Z,95227.09
2022-10-12T20:56:41.190Z,95222.56
2022-10-12T20:59:12.464Z,95229.41
2022-10-12T21:01:40.686Z,95223.84
2022-10-12T21:04:10.179Z,95222.03
2022-10-12T21:06:39.369Z,95209.16
2022-10-12T21:09:10.906Z,95220.56
2022-10-12T21:11:40.231Z,95210.13
2022-10-12T21:14:15.504Z,95194.53
2022-10-12T21:16:43.563Z,95198.75
2022-10-12T21:19:16.413Z,95210.13
2022-10-12T21:21:44.946Z,95210.00
2022-10-12T21:24:15.028Z,95204.13
2022-10-12T21:26:44.888Z,95206.91
2022-10-12T21:29:13.798Z,95201.66
2022-10-12T21:31:41.844Z,95206.06
2022-10-12T21:34:12.157Z,95204.59
2022-10-12T21:36:40.414Z,95215.47
2022-10-12T21:39:13.992Z,95215.97
2022-10-12T21:41:43.620Z,95223.44
2022-10-12T21:44:12.666Z,95217.78
2022-10-12T21:46:46.195Z,95201.63
2022-10-12T21:49:14.445Z,95202.63
2022-10-12T21:51:42.429Z,95195.97
2022-10-12T21:54:12.426Z,95190.59
2022-10-12T21:56:40.481Z,95186.31
2022-10-12T21:59:10.777Z,95191.19
2022-10-12T22:01:41.703Z,95184.50
2022-10-12T22:04:16.214Z,95183.84
2022-10-12T22:06:44.587Z,95180.63
2022-10-12T22:09:16.671Z,95176.44
2022-10-12T22:11:47.993Z,95176.03
2022-10-12T22:14:24.351Z,95180.25
2022-10-12T22:16:52.342Z,95182.03
2022-10-12T22:19:22.559Z,95189.19
2022-10-12T22:21:55.661Z,95186.84
2022-10-12T22:24:23.862Z,95196.09
2022-10-12T22:26:51.818Z,95197.50
2022-10-12T22:29:21.415Z,95191.47
2022-10-12T22:31:52.391Z,95183.81
2022-10-12T22:34:20.529Z,95207.56
2022-10-12T22:36:48.618Z,95207.66
2022-10-12T22:39:17.803Z,95202.25
2022-10-12T22:41:46.336Z,95207.97
2022-10-12T22:44:14.445Z,95194.22
2022-10-12T22:46:43.991Z,95219.44
2022-10-12T22:49:12.216Z,95215.72
2022-10-12T22:51:40.923Z,95216.56
2022-10-12T22:54:11.119Z,95199.94
2022-10-12T22:56:39.650Z,95219.59
2022-10-12T22:59:08.042Z,95218.31
2022-10-12T23:01:39.291Z,95215.22
2022-10-12T23:04:09.315Z,95218.19
2022-10-12T23:06:37.403Z,95210.69
2022-10-12T23:09:05.832Z,95211.97
2022-10-12T23:11:35.017Z,95221.03
2022-10-12T23:14:03.331Z,95217.47
2022-10-12T23:16:34.493Z,95218.13
2022-10-12T23:19:05.124Z,95210.47
2022-10-12T23:21:35.813Z,95213.53
2022-10-12T23:24:05.912Z,95215.31
2022-10-12T23:26:34.783Z,95205.94
2022-10-12T23:29:03.174Z,95204.38
2022-10-12T23:31:32.147Z,95207.50
2022-10-12T23:34:02.723Z,95208.03
2022-10-12T23:36:31.319Z,95203.28
2022-10-12T23:39:02.500Z,95202.16
2022-10-12T23:41:30.598Z,95191.78
2022-10-12T23:43:58.599Z,95189.06
2022-10-12T23:46:27.103Z,95186.13
2022-10-12T23:48:55.075Z,95184.09
2022-10-12T23:51:23.218Z,95187.06
2022-10-12T23:53:51.289Z,95187.63
2022-10-12T23:56:20.714Z,95190.25
2022-10-12T23:58:48.972Z,95188.56
